WEATHER DATA

YESTERDAY
Time Temp. Dewp. Hum. Wind dir Wind speed Wind gust Bar. 1h Prec. 24h Prec.
00:01 -3.2 -4.1 93 0 0 1001.8 0.0000 0.0000
00:11 -3.3 -4.2 93 0 0 1001.8 0.0000 0.0000
00:20 -3.3 -4.2 93 0 0 1001.8 0.0000 0.0000
00:30 -3.3 -4.2 93 0 0 1001.7 0.0000 0.0000
00:41 -3.3 -4.2 93 0 0 1001.5 0.0000 0.0000
00:51 -3.3 -4.2 93 0 0 1001.5 0.0000 0.0000
01:00 -3.3 -4.2 93 0 0 1001.3 0.0000 0.0000
01:11 -3.3 -4.2 93 0 0 1001.3 0.0000 0.0000
01:21 -3.4 -4.3 93 0 0 1001.4 0.0000 0.0000
01:31 -3.4 -4.3 93 0 0 1001.3 0.0000 0.0000
01:41 -3.4 -4.3 93 0 0 1001.2 0.0000 0.0000
01:52 -3.4 -4.3 93 0 0 1001.1 0.0000 0.0000
02:01 -3.4 -4.3 93 0 0 1001 0.0000 0.0000
02:11 -3.4 -4.3 93 0 0 1001 0.0000 0.0000
02:22 -3.4 -4.3 93 0 0 1001 0.0000 0.0000
02:32 -3.4 -4.3 93 0 0 1000.9 0.0000 0.0000
02:41 -3.4 -4.3 93 0 0 1000.8 0.0000 0.0000
02:51 -3.5 -4.4 93 0 0 1000.7 0.0000 0.0000
03:02 -3.5 -4.4 93 0 0 1000.6 0.0000 0.0000
03:12 -3.5 -4.4 93 0 0 1000.6 0.0000 0.0000
03:22 -3.5 -4.4 93 0 0 1000.6 0.0000 0.0000
03:32 -3.5 -4.4 93 0 0 1000.5 0.0000 0.0000
03:42 -3.5 -4.4 93 0 0 1000.5 0.0000 0.0000
03:52 -3.5 -4.4 93 0 0 1000.3 0.0000 0.0000
04:02 -3.5 -4.4 93 0 0 1000.5 0.0000 0.0000
04:13 -3.6 -4.5 93 0 0 1000.4 0.0000 0.0000
04:22 -3.6 -4.5 93 0 0 1000.3 0.0000 0.0000
04:32 -3.6 -4.5 93 0 0 1000.2 0.0000 0.0000
04:43 -3.6 -4.5 93 0 0 1000 0.0000 0.0000
04:53 -3.6 -4.5 93 0 0 1000.1 0.0000 0.0000
05:03 -3.6 -4.5 93 0 0 1000.1 0.0000 0.0000
05:12 -3.6 -4.5 93 0 0 1000 0.0000 0.0000
05:23 -3.7 -4.6 93 0 0 1000.1 0.0000 0.0000
05:33 -3.7 -4.6 93 0 0 999.9 0.0000 0.0000
05:43 -3.7 -4.6 93 0 0 1000.1 0.0000 0.0000
05:53 -3.7 -4.6 93 0 0 1000 0.0000 0.0000
06:04 -3.7 -4.6 93 0 0 1000 0.0000 0.0000
06:13 -3.7 -4.6 93 0 0 999.8 0.0000 0.0000
06:23 -3.6 -4.5 93 0 0 999.8 0.0000 0.0000
06:34 -3.6 -4.5 93 0 0 999.7 0.0000 0.0000
06:44 -3.6 -4.5 93 0 0 999.6 0.0000 0.0000
06:53 -3.6 -4.5 93 0 0 999.6 0.0000 0.0000
07:04 -3.6 -4.5 93 0 0 999.7 0.0000 0.0000
07:14 -3.6 -4.5 93 0 0 999.6 0.0000 0.0000
07:24 -3.6 -4.5 93 0 0 999.5 0.0000 0.0000
07:34 -3.6 -4.5 93 0 0 999.5 0.0000 0.0000
07:45 -3.6 -4.5 93 0 0 999.5 0.0000 0.0000
07:54 -3.6 -4.5 93 0 0 999.5 0.0000 0.0000
08:04 -3.5 -4.4 93 0 0 999.6 0.0000 0.0000
08:14 -3.5 -4.4 93 0 0 999.6 0.0000 0.0000
08:25 -3.5 -4.4 93 0 0 999.6 0.0000 0.0000
08:35 -3.5 -4.4 93 0 0 999.8 0.0000 0.0000
08:44 -3.5 -4.4 93 0 0 999.8 0.0000 0.0000
08:55 -3.4 -4.3 93 0 0 999.9 0.0000 0.0000
09:05 -3.4 -4.3 93 0 0 999.9 0.0000 0.0000
09:15 -3.4 -4.3 93 0 0 999.8 0.0000 0.0000
09:25 -3.4 -4.3 93 0 0 999.9 0.0000 0.0000
09:35 -3.4 -4.3 93 0 0 999.8 0.0000 0.0000
09:45 -3.3 -4.2 93 0 0 999.8 0.0000 0.0000
09:55 -3.3 -4.2 93 0 0 999.8 0.0000 0.0000
10:05 -3.2 -4.1 93 0 0 999.7 0.0000 0.0000
10:16 -3.2 -4.1 93 0 0 999.8 0.0000 0.0000
10:25 -3.1 -4 93 0 0 999.8 0.0000 0.0000
10:35 -3 -3.9 93 0 0 999.6 0.0000 0.0000
10:46 -3 -3.9 93 0 0 999.7 0.0000 0.0000
10:56 -2.9 -3.8 93 0 0 999.6 0.0000 0.0000
11:06 -2.8 -3.7 93 0 0 999.7 0.0000 0.0000
11:16 -2.7 -3.6 93 0 0 999.6 0.0000 0.0000
11:26 -2.6 -3.5 93 0 0 999.6 0.0000 0.0000
11:36 -2.5 -3.4 93 0 0 999.5 0.0000 0.0000
11:46 -2.4 -3.3 93 0 0 999.6 0.0000 0.0000
11:57 -2.3 -3.2 93 0 0 999.7 0.0000 0.0000
12:07 -2.2 -3.1 93 0 0 999.7 0.0000 0.0000
12:16 -2.1 -3 93 0 0 999.6 0.0000 0.0000
12:26 -2.1 -3 93 0 0 999.6 0.0000 0.0000
12:37 -2 -2.9 93 0 0 999.5 0.0000 0.0000
12:47 -1.9 -2.8 93 0 0 999.5 0.0000 0.0000
12:56 -1.8 -2.7 93 0 0 999.6 0.0000 0.0000
13:07 -1.8 -2.7 93 0 0 999.4 0.0000 0.0000
13:17 -1.7 -2.6 93 0 0 999.6 0.0000 0.0000
13:27 -1.7 -2.6 93 0 0 999.5 0.0000 0.0000
13:37 -1.6 -2.5 93 0 0 999.5 0.0000 0.0000
13:48 -1.6 -2.5 93 0 0 999.6 0.0000 0.0000
13:57 -1.6 -2.5 93 0 0 999.5 0.0000 0.0000
14:07 -1.5 -2.4 93 0 0 999.5 0.0000 0.0000
14:18 -1.4 -2.3 93 0 0 999.4 0.0000 0.0000
14:28 -1.3 -2.2 93 0 0 999.6 0.0000 0.0000
14:37 -1.3 -2 94 0 0 999.6 0.0000 0.0000
14:47 -1.2 -2.1 93 0 0 999.5 0.0000 0.0000
14:58 -1.2 -2.1 93 0 0 999.6 0.0000 0.0000
15:08 -1.2 -2.1 93 0 0 999.8 0.0000 0.0000
15:18 -1.1 -1.8 94 0 0 999.8 0.0000 0.0000
15:28 -1.1 -1.8 94 0 0 999.8 0.0000 0.0000
15:38 -1.1 -1.8 94 0 0 1000 0.0000 0.0000
15:48 -1.1 -1.8 94 0 0 1000.1 0.0000 0.0000
15:58 -1 -1.7 94 0 0 1000.1 0.0000 0.0000
16:09 -1 -1.7 94 0 0 1000.2 0.0000 0.0000
16:18 -1 -1.7 94 0 0 1000.2 0.0000 0.0000
16:28 -1 -1.7 94 0 0 1000.4 0.0000 0.0000
16:39 -1 -1.7 94 0 0 1000.5 0.0000 0.0000
16:49 -1 -1.7 94 0 0 1000.6 0.0000 0.0000
16:59 -1.1 -2 93 0 0 1000.9 0.0000 0.0000
17:08 -1.2 -2.1 93 0 0 1001 0.0000 0.0000
17:19 -1.3 -2.2 93 0 0 1001 0.0000 0.0000
17:29 -1.4 -2.3 93 0 0 1001.1 0.0000 0.0000
17:39 -1.5 -2.4 93 0 0 1001.1 0.0000 0.0000
17:49 -1.6 -2.5 93 0 0 1001.3 0.0000 0.0000
18:00 -1.8 -2.7 93 0 0 1001.6 0.0000 0.0000
18:09 -1.9 -2.8 93 0 0 1001.6 0.0000 0.0000
18:19 -2.1 -3 93 0 0 1002 0.0000 0.0000
18:30 -2.2 -3.1 93 0 0 1002.2 0.0000 0.0000
18:40 -2.3 -3.2 93 0 0 1002.1 0.0000 0.0000
18:50 -2.4 -3.3 93 0 0 1002.4 0.0000 0.0000
19:00 -2.5 -3.4 93 0 0 1002.4 0.0000 0.0000
19:10 -2.6 -3.5 93 0 0 1002.5 0.0000 0.0000
19:20 -2.7 -3.6 93 0 0 1002.8 0.0000 0.0000
19:30 -2.8 -3.7 93 0 0 1002.8 0.0000 0.0000
19:41 -2.9 -3.8 93 0 0 1002.9 0.0000 0.0000
19:50 -3 -3.9 93 0 0 1003.1 0.0000 0.0000
20:00 -3.1 -4 93 0 0 1003.1 0.0000 0.0000
20:10 -3.2 -4.1 93 0 0 1003.4 0.0000 0.0000
20:21 -3.3 -4.2 93 0 0 1003.4 0.0000 0.0000
20:31 -3.5 -4.4 93 0 0 1003.5 0.0000 0.0000
20:40 -3.6 -4.5 93 0 0 1003.7 0.0000 0.0000
20:51 -3.6 -4.5 93 0 0 1003.9 0.0000 0.0000
21:01 -3.7 -4.6 93 0 0 1003.8 0.0000 0.0000
21:11 -3.7 -4.6 93 0 0 1004.1 0.0000 0.0000
21:21 -3.7 -4.6 93 0 0 1004.2 0.0000 0.0000
21:32 -3.7 -4.6 93 0 0 1004.4 0.0000 0.0000
21:41 -3.7 -4.6 93 0 0 1004.5 0.0000 0.0000
22:01 -3.7 -4.6 93 0 0 1004.6 0.0000 0.0000
22:12 -3.7 -4.6 93 0 0 1004.8 0.0000 0.0000
22:31 -3.6 -4.5 93 0 0 1005.2 0.0000 0.0000
22:42 -3.6 -4.5 93 0 0 1005.4 0.0000 0.0000
22:52 -3.6 -4.5 93 0 0 1005.3 0.0000 0.0000
23:02 -3.7 -4.6 93 0 0 1005.5 0.0000 0.0000
23:12 -3.7 -4.6 93 0 0 1005.5 0.0000 0.0000
23:22 -3.8 -4.7 93 0 0 1005.6 0.0000

DAY STATISTIC

2022-12-08
TEMPERATURE
AVERAGE
-2.8
HIGH
-1.0
15:58
LOW
-3.8
23:22
PRESSURE
AVERAGE
1000.9
HIGH
1005.6
23:22
LOW
999.4
13:07
DEWPOINT
AVERAGE
-3.7
HIGH
-1.7
15:58
LOW
-4.7
23:22
HUMIDITY
AVERAGE
93
HIGH
94
14:37
LOW
93
00:01
WIND SPEED
AVERAGE
0.0
HIGH
0.0
02:09
WIND GUST
AVERAGE
0.0
HIGH
0.0
02:09
WIND DIRECTION
PREVAILING
%
PRECIPITATION
RAIN HOUR
0.0
RAIN DAY
0.0
TEMPERATURE (°C)
LOW
-3.8
HIGH
-1.0
AVERAGE
-2.8
PRESSURE (hpa)
LOW
999.4
HIGH
1005.6
AVERAGE
1000.9
DEVICE